createdAt,value
2022-09-15T00:03:18.425Z,97565.72
2022-09-15T00:08:40.656Z,97562.56
2022-09-15T00:14:04.620Z,97553.47
2022-09-15T00:19:26.414Z,97545.38
2022-09-15T00:24:49.301Z,97545.88
2022-09-15T00:30:11.321Z,97537.53
2022-09-15T00:35:37.358Z,97540.88
2022-09-15T00:41:00.670Z,97538.56
2022-09-15T00:46:51.805Z,97539.06
2022-09-15T00:52:36.065Z,97541.88
2022-09-15T00:58:04.004Z,97539.53
2022-09-15T01:03:27.244Z,97543.19
2022-09-15T01:08:56.738Z,97549.97
2022-09-15T01:14:18.468Z,97549.97
2022-09-15T01:20:16.002Z,97547.50
2022-09-15T01:26:05.563Z,97544.84
2022-09-15T01:31:59.746Z,97533.59
2022-09-15T01:37:28.894Z,97513.22
2022-09-15T01:42:52.323Z,97507.41
2022-09-15T01:48:15.300Z,97510.94
2022-09-15T01:53:37.363Z,97513.38
2022-09-15T01:58:59.475Z,97503.44
2022-09-15T02:04:25.345Z,97500.66
2022-09-15T02:10:21.924Z,97487.22
2022-09-15T02:15:51.517Z,97491.19
2022-09-15T02:21:45.638Z,97507.94
2022-09-15T02:27:12.299Z,97509.06
2022-09-15T02:32:37.587Z,97514.03
2022-09-15T02:38:00.814Z,97517.72
2022-09-15T02:43:23.342Z,97508.09
2022-09-15T02:48:45.060Z,97492.88
2022-09-15T02:54:06.941Z,97499.47
2022-09-15T02:59:48.610Z,97504.47
2022-09-15T03:05:11.737Z,97492.19
2022-09-15T03:10:33.557Z,97497.69
2022-09-15T03:15:55.320Z,97495.84
2022-09-15T03:21:18.500Z,97485.72
2022-09-15T03:26:40.258Z,97485.56
2022-09-15T03:32:02.314Z,97491.19
2022-09-15T03:37:24.182Z,97492.88
2022-09-15T03:42:45.889Z,97490.38
2022-09-15T03:48:08.629Z,97491.88
2022-09-15T03:53:39.182Z,97487.59
2022-09-15T03:59:02.150Z,97492.84
2022-09-15T04:04:23.973Z,97496.16
2022-09-15T04:09:46.020Z,97497.19
2022-09-15T04:15:08.177Z,97497.19
2022-09-15T04:20:29.887Z,97491.22
2022-09-15T04:26:00.798Z,97498.31
2022-09-15T04:31:23.078Z,97488.38
2022-09-15T04:36:45.609Z,97491.03
2022-09-15T04:42:07.825Z,97479.47
2022-09-15T04:47:29.558Z,97478.63
2022-09-15T04:52:52.075Z,97477.47
2022-09-15T04:58:14.260Z,97491.34
2022-09-15T05:03:37.631Z,97485.56
2022-09-15T05:08:59.526Z,97508.25
2022-09-15T05:14:21.239Z,97518.53
2022-09-15T05:19:42.935Z,97514.41
2022-09-15T05:25:05.525Z,97513.38
2022-09-15T05:30:44.455Z,97515.38
2022-09-15T05:36:07.231Z,97515.72
2022-09-15T05:41:29.394Z,97516.34
2022-09-15T05:46:52.321Z,97516.34
2022-09-15T05:52:14.113Z,97525.63
2022-09-15T05:57:35.872Z,97512.72
2022-09-15T06:02:57.673Z,97518.38
2022-09-15T06:08:19.937Z,97514.41
2022-09-15T06:13:42.519Z,97524.34
2022-09-15T06:19:04.598Z,97513.53
2022-09-15T06:24:26.325Z,97523.97
2022-09-15T06:29:48.783Z,97533.91
2022-09-15T06:35:10.504Z,97544.66
2022-09-15T06:40:32.328Z,97540.84
2022-09-15T06:46:14.535Z,97542.84
2022-09-15T06:51:36.372Z,97562.38
2022-09-15T06:56:58.071Z,97573.44
2022-09-15T07:02:20.865Z,97574.91
2022-09-15T07:07:42.851Z,97568.69
2022-09-15T07:13:04.542Z,97578.25
2022-09-15T07:18:27.020Z,97581.22
2022-09-15T07:23:49.438Z,97585.03
2022-09-15T07:29:11.154Z,97580.88
2022-09-15T07:34:32.970Z,97586.66
2022-09-15T07:39:54.717Z,97588.81
2022-09-15T07:45:16.642Z,97587.00
2022-09-15T07:50:38.520Z,97592.78
2022-09-15T07:56:00.257Z,97593.31
2022-09-15T08:01:22.582Z,97601.56
2022-09-15T08:06:44.805Z,97600.81
2022-09-15T08:12:07.836Z,97600.03
2022-09-15T08:17:29.592Z,97606.47
2022-09-15T08:22:51.311Z,97616.91
2022-09-15T08:28:13.046Z,97626.16
2022-09-15T08:33:35.061Z,97623.34
2022-09-15T08:38:56.907Z,97628.13
2022-09-15T08:44:49.544Z,97623.50
2022-09-15T08:50:23.622Z,97635.75
2022-09-15T08:55:59.051Z,97639.38
2022-09-15T09:01:31.950Z,97643.03
2022-09-15T09:07:05.255Z,97647.22
2022-09-15T09:13:04.867Z,97654.19
2022-09-15T09:19:04.933Z,97654.19
2022-09-15T09:24:31.412Z,97660.28
2022-09-15T09:30:06.902Z,97649.72
2022-09-15T09:35:32.100Z,97661.94
2022-09-15T09:40:57.497Z,97669.34
2022-09-15T09:46:22.336Z,97668.47
2022-09-15T09:52:02.363Z,97662.06
2022-09-15T09:57:31.635Z,97645.66
2022-09-15T10:02:53.377Z,97672.28
2022-09-15T10:08:20.173Z,97653.25
2022-09-15T10:13:52.769Z,97669.94
2022-09-15T10:19:14.920Z,97670.41
2022-09-15T10:24:39.896Z,97681.63
2022-09-15T10:30:14.515Z,97685.69
2022-09-15T10:35:42.187Z,97706.34
2022-09-15T10:41:06.933Z,97715.03
2022-09-15T10:46:44.884Z,97719.53
2022-09-15T10:52:35.089Z,97728.09
2022-09-15T10:58:29.382Z,97726.59
2022-09-15T11:04:25.162Z,97728.00
2022-09-15T11:09:57.680Z,97741.94
2022-09-15T11:15:28.223Z,97743.13
2022-09-15T11:21:17.577Z,97751.16
2022-09-15T11:27:14.422Z,97755.44
2022-09-15T11:32:47.902Z,97768.25
2022-09-15T11:38:28.289Z,97773.53
2022-09-15T11:44:03.742Z,97789.09
2022-09-15T11:49:45.021Z,97789.41
2022-09-15T11:55:19.351Z,97796.88
2022-09-15T12:01:00.757Z,97805.13
2022-09-15T12:06:30.456Z,97811.91
2022-09-15T12:12:00.937Z,97825.94
2022-09-15T12:17:34.772Z,97829.88
2022-09-15T12:23:20.358Z,97828.72
2022-09-15T12:28:54.569Z,97836.78
2022-09-15T12:34:25.270Z,97838.38
2022-09-15T12:39:47.758Z,97841.38
2022-09-15T12:45:25.372Z,97849.47
2022-09-15T12:51:00.958Z,97850.56
2022-09-15T12:56:26.439Z,97853.88
2022-09-15T13:01:49.844Z,97851.75
2022-09-15T13:07:18.449Z,97858.78
2022-09-15T13:12:44.099Z,97854.91
2022-09-15T13:18:07.347Z,97851.88
2022-09-15T13:23:36.618Z,97854.41
2022-09-15T13:28:59.363Z,97859.06
2022-09-15T13:40:33.165Z,97863.47
2022-09-15T13:46:23.850Z,97855.94
2022-09-15T13:51:58.392Z,97866.31
2022-09-15T13:58:54.780Z,97861.94
2022-09-15T14:03:09.143Z,97865.28
2022-09-15T14:08:33.418Z,97864.50
2022-09-15T14:13:56.588Z,97866.25
2022-09-15T14:19:33.305Z,97863.03
2022-09-15T14:24:59.707Z,97870.16
2022-09-15T14:30:29.263Z,97875.88
2022-09-15T14:35:50.999Z,97865.91
2022-09-15T14:41:19.083Z,97850.44
2022-09-15T14:46:40.794Z,97857.97
2022-09-15T14:52:03.121Z,97856.53
2022-09-15T14:57:30.859Z,97858.72
2022-09-15T15:02:59.080Z,97862.00
2022-09-15T15:08:48.992Z,97866.47
2022-09-15T15:14:13.612Z,97865.81
2022-09-15T15:19:39.610Z,97874.31
2022-09-15T15:25:01.495Z,97873.41
2022-09-15T15:30:32.296Z,97880.28
2022-09-15T15:36:08.172Z,97878.78
2022-09-15T15:41:41.604Z,97881.19
2022-09-15T15:47:24.707Z,97881.19
2022-09-15T15:52:48.077Z,97880.31
2022-09-15T15:58:11.502Z,97881.19
2022-09-15T16:03:33.730Z,97878.91
2022-09-15T16:08:58.080Z,97882.91
2022-09-15T16:14:19.879Z,97886.81
2022-09-15T16:19:41.613Z,97881.09
2022-09-15T16:25:13.199Z,97892.34
2022-09-15T16:30:35.081Z,97895.88
2022-09-15T16:36:06.727Z,97892.34
2022-09-15T16:41:28.469Z,97893.00
2022-09-15T16:46:50.373Z,97893.69
2022-09-15T16:52:13.480Z,97901.06
2022-09-15T16:57:35.242Z,97891.38
2022-09-15T17:02:57.586Z,97907.69
2022-09-15T17:08:25.913Z,97905.59
2022-09-15T17:13:47.897Z,97913.25
2022-09-15T17:19:09.738Z,97923.63
2022-09-15T17:24:31.533Z,97925.59
2022-09-15T17:29:53.216Z,97921.69
2022-09-15T17:35:24.841Z,97921.88
2022-09-15T17:40:48.083Z,97924.13
2022-09-15T17:46:09.982Z,97925.34
2022-09-15T17:51:31.671Z,97915.59
2022-09-15T17:56:53.744Z,97924.22
2022-09-15T18:02:18.931Z,97922.56
2022-09-15T18:07:40.653Z,97926.16
2022-09-15T18:13:04.316Z,97925.72
2022-09-15T18:18:27.863Z,97925.59
2022-09-15T18:23:49.550Z,97939.47
2022-09-15T18:29:11.276Z,97949.63
2022-09-15T18:34:32.970Z,97947.41
2022-09-15T18:39:54.675Z,97953.13
2022-09-15T18:45:18.306Z,97956.72
2022-09-15T18:50:41.600Z,97967.91
2022-09-15T18:56:14.619Z,97961.38
2022-09-15T19:01:36.881Z,97963.88
2022-09-15T19:06:58.826Z,97965.81
2022-09-15T19:17:43.965Z,97971.56
2022-09-15T19:23:06.217Z,97964.88
2022-09-15T19:28:27.991Z,97976.59
2022-09-15T19:33:50.004Z,97976.47
2022-09-15T19:39:13.062Z,97981.09
2022-09-15T19:44:34.863Z,97973.88
2022-09-15T19:49:56.654Z,97983.59
2022-09-15T19:55:18.885Z,97984.28
2022-09-15T20:00:40.847Z,97981.94
2022-09-15T20:06:06.178Z,97989.53
2022-09-15T20:11:28.561Z,97998.56
2022-09-15T20:16:50.282Z,97985.06
2022-09-15T20:22:12.004Z,97991.88
2022-09-15T20:27:33.727Z,97999.88
2022-09-15T20:32:55.439Z,97998.09
2022-09-15T20:38:17.281Z,97997.69
2022-09-15T20:43:40.220Z,97999.91
2022-09-15T20:49:01.955Z,98000.19
2022-09-15T20:54:24.068Z,98004.84
2022-09-15T20:59:45.766Z,97999.69
2022-09-15T21:05:08.013Z,98000.13
2022-09-15T21:10:30.456Z,98002.19
2022-09-15T21:15:57.994Z,98005.38
2022-09-15T21:21:22.302Z,98003.16
2022-09-15T21:27:02.709Z,98002.81
2022-09-15T21:32:24.885Z,98007.25
2022-09-15T21:37:46.595Z,98017.50
2022-09-15T21:43:08.290Z,98023.66
2022-09-15T21:48:34.746Z,98019.03
2022-09-15T21:53:58.374Z,98026.44
2022-09-15T21:59:20.094Z,98022.16
2022-09-15T22:04:41.816Z,98020.88
2022-09-15T22:10:03.822Z,98025.41
2022-09-15T22:15:25.810Z,98018.84
2022-09-15T22:20:47.801Z,98020.59
2022-09-15T22:26:12.634Z,98031.00
2022-09-15T22:31:35.012Z,98027.69
2022-09-15T22:36:56.910Z,98028.91
2022-09-15T22:42:18.612Z,98031.78
2022-09-15T22:47:40.290Z,98032.19
2022-09-15T22:53:02.178Z,98030.66
2022-09-15T22:58:23.891Z,98023.75
2022-09-15T23:04:00.197Z,98031.81
2022-09-15T23:09:21.896Z,98028.38
2022-09-15T23:14:43.893Z,98031.72
2022-09-15T23:20:05.881Z,98034.13
2022-09-15T23:25:27.578Z,98030.63
2022-09-15T23:30:53.831Z,98022.56
2022-09-15T23:36:19.513Z,98021.16
2022-09-15T23:41:41.883Z,98027.25
2022-09-15T23:47:03.672Z,98024.31
2022-09-15T23:52:25.420Z,98027.25
2022-09-15T23:57:47.130Z,98030.88
